Time;durP1;ratioP1;P1;durP2;ratioP2;P2;SDS_P1;SDS_P2;PMS_P1;PMS_P2;Temp;Humidity;BMP_temperature;BMP_pressure;BME280_temperature;BME280_humidity;BME280_pressure;Samples;Min_cycle;Max_cycle;Signal;HPM_P1;HPM_P2
2021/09/20 00:00:23;;;;;;;4.20;1.90;;;;;;;10.81;96.78;101991.75;5024115;28;20071;-75
2021/09/20 00:02:48;;;;;;;3.08;2.08;;;;;;;10.80;96.27;101993.53;5018311;28;20523;-74
2021/09/20 00:05:14;;;;;;;3.05;1.70;;;;;;;10.83;96.38;101992.47;5030884;28;20035;-76
2021/09/20 00:07:39;;;;;;;5.10;1.98;;;;;;;10.83;96.72;101990.69;5043423;28;20044;-76
2021/09/20 00:10:08;;;;;;;7.88;2.20;;;;;;;10.89;95.38;101987.59;5044489;28;20029;-76
2021/09/20 00:12:34;;;;;;;2.42;1.88;;;;;;;10.90;94.92;101983.16;5028610;28;20037;-76
2021/09/20 00:15:02;;;;;;;3.03;1.73;;;;;;;10.87;95.68;101986.88;5027664;28;20043;-76
2021/09/20 00:17:28;;;;;;;2.45;1.70;;;;;;;10.81;95.85;101989.13;5023676;28;20237;-76
2021/09/20 00:19:53;;;;;;;4.82;1.80;;;;;;;10.81;95.04;101989.13;5024596;28;20128;-75
2021/09/20 00:22:19;;;;;;;4.55;1.98;;;;;;;10.80;95.11;101988.28;5025057;28;20033;-77
2021/09/20 00:24:44;;;;;;;4.53;1.73;;;;;;;10.82;94.41;101988.19;5031265;28;20096;-76
2021/09/20 00:27:14;;;;;;;10.15;1.95;;;;;;;10.77;95.03;101985.88;5022682;28;20033;-76
2021/09/20 00:29:40;;;;;;;4.82;1.95;;;;;;;10.75;96.76;102007.97;5000160;28;20476;-73
2021/09/20 00:32:06;;;;;;;3.58;2.03;;;;;;;10.78;94.23;102005.13;5029324;28;20047;-76
2021/09/20 00:34:31;;;;;;;2.92;1.80;;;;;;;10.77;95.55;101998.19;5029071;28;20440;-76
2021/09/20 00:36:57;;;;;;;3.88;1.98;;;;;;;10.76;95.72;101997.34;5032764;28;20029;-77
2021/09/20 00:39:23;;;;;;;5.07;1.77;;;;;;;10.77;95.89;102004.25;5017026;28;20037;-76
2021/09/20 00:41:49;;;;;;;4.40;2.30;;;;;;;10.76;97.10;102002.59;5021766;28;20083;-76
2021/09/20 00:44:14;;;;;;;6.93;1.92;;;;;;;10.80;96.75;102009.28;5045006;28;20087;-77
2021/09/20 00:46:40;;;;;;;6.20;1.95;;;;;;;10.75;96.32;101998.28;5034580;28;20056;-76
2021/09/20 00:49:06;;;;;;;5.88;2.03;;;;;;;10.73;97.18;102005.44;5038959;28;20087;-76
2021/09/20 00:51:31;;;;;;;4.97;2.13;;;;;;;10.71;97.79;101999.47;5019405;28;20043;-76
2021/09/20 00:53:57;;;;;;;3.95;2.30;;;;;;;10.70;98.03;102000.47;5027498;28;20037;-77
2021/09/20 00:56:23;;;;;;;4.13;1.77;;;;;;;10.67;98.01;102012.00;5002610;28;20047;-76
2021/09/20 00:58:55;;;;;;;6.45;1.95;;;;;;;10.62;98.93;101995.75;5036318;28;20029;-75
2021/09/20 01:01:21;;;;;;;2.38;1.95;;;;;;;10.64;100.00;102007.00;5042300;28;20737;-76
2021/09/20 01:03:47;;;;;;;3.75;1.92;;;;;;;10.69;100.00;102009.25;5026274;28;20075;-76
2021/09/20 01:06:12;;;;;;;5.05;1.85;;;;;;;10.62;99.45;102003.63;5032424;28;20104;-76
2021/09/20 01:08:38;;;;;;;5.53;2.17;;;;;;;10.58;99.45;102006.63;5043598;28;20037;-75
2021/09/20 01:11:04;;;;;;;2.83;2.05;;;;;;;10.56;98.18;102000.66;5020450;28;20064;-75
2021/09/20 01:13:29;;;;;;;6.32;1.77;;;;;;;10.59;97.25;101995.19;5034226;28;20128;-75
2021/09/20 01:15:55;;;;;;;4.20;2.15;;;;;;;10.63;96.22;102005.31;5040414;28;20047;-75
2021/09/20 01:18:21;;;;;;;5.03;2.35;;;;;;;10.60;98.95;102004.72;5024662;28;20037;-76
2021/09/20 01:20:47;;;;;;;8.25;1.90;;;;;;;10.56;97.36;102009.34;5043453;28;20039;-77
2021/09/20 01:23:12;;;;;;;5.20;1.80;;;;;;;10.57;98.68;102005.78;5026310;28;20035;-75
2021/09/20 01:25:38;;;;;;;3.65;2.08;;;;;;;10.56;98.96;102008.53;5015095;28;20029;-75
2021/09/20 01:28:04;;;;;;;2.83;1.83;;;;;;;10.60;96.55;102002.91;5037577;28;20044;-75
2021/09/20 01:30:30;;;;;;;1.85;1.60;;;;;;;10.56;97.22;102004.09;5045592;28;20052;-74
2021/09/20 01:32:56;;;;;;;8.25;2.35;;;;;;;10.55;96.79;102010.31;5042942;28;20033;-75
2021/09/20 01:35:24;;;;;;;4.65;2.05;;;;;;;10.51;98.77;102008.88;5041918;28;20049;-76
2021/09/20 01:37:49;;;;;;;4.35;2.45;;;;;;;10.52;97.54;102016.59;5060397;28;20728;-76
2021/09/20 01:40:16;;;;;;;6.30;2.10;;;;;;;10.52;97.76;102013.97;5044433;28;20036;-75
2021/09/20 01:42:42;;;;;;;5.50;2.00;;;;;;;10.51;98.63;102012.34;5059287;28;20690;-76
2021/09/20 01:45:08;;;;;;;2.25;1.60;;;;;;;10.50;98.02;102008.03;5030051;28;20033;-76
2021/09/20 01:47:34;;;;;;;10.15;1.98;;;;;;;10.48;97.47;102011.72;5043493;28;20044;-76
2021/09/20 01:49:59;;;;;;;6.82;2.35;;;;;;;10.47;98.23;102008.28;5037804;28;20033;-75
2021/09/20 01:52:25;;;;;;;3.60;1.95;;;;;;;10.47;96.67;102012.66;5046953;28;20026;-74
2021/09/20 01:54:51;;;;;;;4.78;1.85;;;;;;;10.46;96.61;102008.38;5026337;28;20826;-75
2021/09/20 01:57:17;;;;;;;5.72;2.15;;;;;;;10.45;96.49;102002.31;5027437;28;20029;-76
2021/09/20 01:59:43;;;;;;;4.05;1.75;;;;;;;10.46;98.21;102003.97;5023229;28;20041;-77
2021/09/20 02:02:08;;;;;;;3.22;1.73;;;;;;;10.43;96.20;101998.94;5022190;28;20389;-75
2021/09/20 02:04:35;;;;;;;3.53;1.92;;;;;;;10.40;97.85;102001.81;5034472;28;20087;-75
2021/09/20 02:07:00;;;;;;;5.20;1.85;;;;;;;10.32;98.49;102004.13;5045397;28;20032;-75
2021/09/20 02:09:26;;;;;;;3.60;2.17;;;;;;;10.36;99.53;101997.75;5045738;28;20029;-76
2021/09/20 02:11:51;;;;;;;5.10;1.70;;;;;;;10.28;97.05;101993.03;5038375;28;20108;-76
2021/09/20 02:14:17;;;;;;;4.00;1.77;;;;;;;10.37;97.08;102004.66;5037718;28;20079;-75
2021/09/20 02:16:43;;;;;;;3.05;1.90;;;;;;;10.34;96.89;101994.41;5041212;28;20075;-76
2021/09/20 02:19:09;;;;;;;3.90;2.00;;;;;;;10.32;96.07;102005.00;5027383;28;20061;-76
2021/09/20 02:21:34;;;;;;;3.92;1.90;;;;;;;10.40;96.18;102001.81;5007580;28;20037;-76
2021/09/20 02:24:00;;;;;;;4.97;2.00;;;;;;;10.34;95.29;101999.66;5023741;28;20098;-75
2021/09/20 02:26:26;;;;;;;4.65;2.13;;;;;;;10.32;96.10;101991.03;5023707;28;20025;-76
2021/09/20 02:28:51;;;;;;;3.53;2.03;;;;;;;10.30;96.98;102004.28;5024126;28;20072;-76
2021/09/20 02:31:17;;;;;;;2.58;1.75;;;;;;;10.28;96.93;101998.28;5036530;28;20037;-76
2021/09/20 02:33:42;;;;;;;5.28;2.25;;;;;;;10.25;97.61;102002.91;5006548;28;20033;-76
2021/09/20 02:36:08;;;;;;;6.07;2.25;;;;;;;10.21;98.50;102004.06;5019252;28;20557;-75
2021/09/20 02:38:34;;;;;;;5.28;1.95;;;;;;;10.20;97.46;102002.41;5035437;28;20055;-75
2021/09/20 02:41:00;;;;;;;6.18;1.90;;;;;;;10.21;98.66;102001.44;5020649;28;20071;-76
2021/09/20 02:43:26;;;;;;;4.97;2.20;;;;;;;10.20;99.48;101994.53;5046629;28;20120;-75
2021/09/20 02:45:52;;;;;;;4.57;2.58;;;;;;;10.17;99.84;102000.88;5011565;28;20508;-76
2021/09/20 02:48:18;;;;;;;5.78;2.60;;;;;;;10.13;100.00;102007.25;5043193;28;20037;-76
2021/09/20 02:50:44;;;;;;;5.70;2.40;;;;;;;10.08;99.14;102004.16;5010275;28;20030;-75
2021/09/20 02:53:10;;;;;;;6.20;2.45;;;;;;;10.05;100.00;102010.44;5036550;28;20055;-76
2021/09/20 02:55:36;;;;;;;3.67;2.35;;;;;;;10.01;100.00;102016.03;5056235;28;20159;-76
2021/09/20 02:58:02;;;;;;;4.15;2.80;;;;;;;9.99;100.00;102010.91;5023177;28;20037;-77
2021/09/20 03:00:27;;;;;;;8.68;2.90;;;;;;;10.02;100.00;102007.22;5037320;28;20044;-75
2021/09/20 03:02:53;;;;;;;3.42;2.55;;;;;;;10.02;100.00;102012.44;5018201;28;20026;-75
2021/09/20 03:05:18;;;;;;;3.60;2.20;;;;;;;9.94;100.00;102008.63;5029325;28;20033;-76
2021/09/20 03:07:44;;;;;;;7.20;2.40;;;;;;;9.89;100.00;102012.53;5042906;28;20047;-76
2021/09/20 03:10:10;;;;;;;5.57;2.15;;;;;;;9.86;100.00;102010.94;5028712;28;20029;-76
2021/09/20 03:12:36;;;;;;;4.68;2.47;;;;;;;9.89;100.00;102013.34;5025858;28;20078;-76
2021/09/20 03:15:02;;;;;;;6.47;2.25;;;;;;;9.92;100.00;102020.16;5026916;28;20045;-75
2021/09/20 03:17:28;;;;;;;3.67;2.47;;;;;;;9.93;100.00;102021.84;5008681;28;20048;-77
2021/09/20 03:19:53;;;;;;;3.83;2.03;;;;;;;9.94;100.00;102023.50;5048472;28;20747;-77
2021/09/20 03:22:20;;;;;;;4.25;1.60;;;;;;;9.96;100.00;102018.16;5011270;28;20037;-76
2021/09/20 03:24:46;;;;;;;3.90;2.10;;;;;;;10.05;100.00;102018.31;5036204;28;20043;-77
2021/09/20 03:27:11;;;;;;;5.18;2.38;;;;;;;10.03;100.00;102012.34;5045430;28;20486;-76
2021/09/20 03:29:37;;;;;;;3.90;2.40;;;;;;;10.09;100.00;102019.75;5011355;28;20044;-75
2021/09/20 03:32:03;;;;;;;8.55;2.50;;;;;;;10.04;99.56;102016.66;5020281;28;20628;-74
2021/09/20 03:34:28;;;;;;;5.97;2.20;;;;;;;10.02;100.00;102029.03;5026135;28;20046;-76
2021/09/20 03:36:54;;;;;;;3.85;2.42;;;;;;;10.04;100.00;102036.75;5040710;28;20151;-74
2021/09/20 03:39:19;;;;;;;5.80;2.10;;;;;;;9.98;100.00;102027.56;5046347;28;20406;-75
2021/09/20 03:41:45;;;;;;;5.15;2.00;;;;;;;9.98;100.00;102024.09;5046133;28;20032;-75
2021/09/20 03:44:10;;;;;;;3.90;2.33;;;;;;;9.91;100.00;102024.56;5046197;28;20041;-75
2021/09/20 03:46:36;;;;;;;5.18;2.20;;;;;;;10.04;100.00;102034.16;5021314;28;20030;-74
2021/09/20 03:49:03;;;;;;;5.38;2.28;;;;;;;10.05;100.00;102028.78;5049332;28;20029;-74
2021/09/20 03:51:29;;;;;;;4.85;2.35;;;;;;;10.03;99.91;102029.88;5042988;28;20033;-74
2021/09/20 03:53:54;;;;;;;5.80;2.30;;;;;;;9.99;99.05;102031.88;5025767;28;20037;-75
2021/09/20 03:56:20;;;;;;;3.67;2.20;;;;;;;9.98;98.93;102027.56;5039921;28;20037;-75
2021/09/20 03:58:45;;;;;;;4.57;2.20;;;;;;;9.92;100.00;102034.09;5024615;28;20036;-74
2021/09/20 04:01:11;;;;;;;3.72;2.25;;;;;;;9.84;100.00;102032.97;5042351;28;20409;-76
2021/09/20 04:03:37;;;;;;;9.80;2.50;;;;;;;9.82;100.00;102040.13;5038041;28;20501;-75
2021/09/20 04:06:02;;;;;;;4.15;2.10;;;;;;;9.80;100.00;102042.00;5031344;28;20432;-74
2021/09/20 04:08:28;;;;;;;5.78;2.58;;;;;;;9.82;100.00;102040.94;5027848;28;20056;-74
2021/09/20 04:10:58;;;;;;;6.43;2.22;;;;;;;9.83;100.00;102044.41;5044560;28;20028;-74
2021/09/20 04:13:25;;;;;;;4.13;2.30;;;;;;;9.85;100.00;102045.13;5029201;28;20080;-76
2021/09/20 04:15:53;;;;;;;6.13;2.50;;;;;;;9.92;99.84;102048.97;5027765;28;20057;-76
2021/09/20 04:18:24;;;;;;;3.08;2.35;;;;;;;9.93;100.00;102050.66;5021746;28;20049;-75
2021/09/20 04:20:51;;;;;;;3.22;2.60;;;;;;;9.96;100.00;102052.22;5011596;28;20049;-77
2021/09/20 04:23:19;;;;;;;10.02;3.42;;;;;;;9.91;100.00;102053.41;5039471;28;20037;-76
2021/09/20 04:25:46;;;;;;;5.88;2.45;;;;;;;9.91;99.56;102049.94;5039563;28;20028;-77
2021/09/20 04:28:12;;;;;;;6.75;2.53;;;;;;;9.91;100.00;102049.94;5046208;28;20076;-74
2021/09/20 04:30:37;;;;;;;4.20;2.45;;;;;;;9.93;99.88;102053.28;5011804;28;20163;-74
2021/09/20 04:33:03;;;;;;;4.38;2.80;;;;;;;9.91;99.69;102055.19;5025959;28;20037;-77
2021/09/20 04:35:29;;;;;;;4.50;2.42;;;;;;;9.86;100.00;102054.66;5038826;28;20028;-76
2021/09/20 04:37:54;;;;;;;6.82;2.63;;;;;;;9.81;100.00;102062.84;5047632;28;20036;-75
2021/09/20 04:40:20;;;;;;;6.78;2.38;;;;;;;9.86;100.00;102068.59;5033438;28;20138;-75
2021/09/20 04:42:46;;;;;;;3.90;2.28;;;;;;;9.91;99.99;102063.88;5024270;28;20811;-74
2021/09/20 04:45:11;;;;;;;10.98;2.88;;;;;;;9.89;99.71;102071.00;5013244;28;20499;-76
2021/09/20 04:47:37;;;;;;;9.02;2.60;;;;;;;9.91;100.00;102073.53;5039159;28;20062;-75
2021/09/20 04:50:04;;;;;;;5.07;2.42;;;;;;;9.91;98.32;102071.75;5021939;28;20033;-75
2021/09/20 04:52:30;;;;;;;7.78;2.85;;;;;;;9.92;97.52;102073.41;5028410;28;20040;-75
2021/09/20 04:54:56;;;;;;;8.32;2.75;;;;;;;9.91;97.83;102070.91;5013670;28;20029;-75
2021/09/20 04:57:21;;;;;;;3.33;2.58;;;;;;;9.94;98.96;102071.53;5034411;28;20087;-75
2021/09/20 04:59:47;;;;;;;6.65;2.63;;;;;;;9.84;98.70;102073.13;5054649;28;20040;-75
2021/09/20 05:02:13;;;;;;;7.47;2.95;;;;;;;9.91;100.00;102086.63;5003587;28;20029;-75
2021/09/20 05:04:40;;;;;;;6.10;2.50;;;;;;;9.90;100.00;102087.56;5015246;28;20086;-76
2021/09/20 05:07:06;;;;;;;9.27;2.50;;;;;;;9.85;100.00;102082.66;5018362;28;20044;-74
2021/09/20 05:09:32;;;;;;;5.85;2.50;;;;;;;9.81;99.79;102082.97;5011973;28;20479;-75
2021/09/20 05:11:57;;;;;;;5.72;2.65;;;;;;;9.81;100.00;102090.84;5031180;28;20029;-75
2021/09/20 05:14:23;;;;;;;8.70;2.40;;;;;;;9.80;100.00;102091.81;5028945;28;20036;-75
2021/09/20 05:16:49;;;;;;;9.10;2.53;;;;;;;9.80;100.00;102087.38;5027505;28;20104;-76
2021/09/20 05:19:15;;;;;;;6.47;2.63;;;;;;;9.81;100.00;102094.28;5021007;28;20033;-76
2021/09/20 05:21:40;;;;;;;7.72;2.60;;;;;;;9.83;100.00;102096.81;5044513;28;20033;-76
2021/09/20 05:24:06;;;;;;;11.88;2.60;;;;;;;9.89;99.94;102106.88;5033005;28;20033;-75
2021/09/20 05:26:31;;;;;;;4.85;2.72;;;;;;;9.93;98.58;102101.28;5047360;28;20025;-76
2021/09/20 05:28:57;;;;;;;8.25;2.60;;;;;;;9.92;100.00;102102.22;5026437;28;20028;-76
2021/09/20 05:31:22;;;;;;;10.73;3.55;;;;;;;9.86;100.00;102100.06;5040390;28;20489;-76
2021/09/20 05:33:48;;;;;;;8.38;3.05;;;;;;;9.86;100.00;102109.69;5039811;28;20090;-76
2021/09/20 05:36:14;;;;;;;8.43;2.72;;;;;;;9.84;100.00;102108.97;5049414;28;20044;-76
2021/09/20 05:38:39;;;;;;;4.22;2.67;;;;;;;9.82;100.00;102103.84;5031553;28;20060;-76
2021/09/20 05:41:05;;;;;;;9.75;3.20;;;;;;;9.78;100.00;102104.19;5045157;28;20104;-77
2021/09/20 05:43:30;;;;;;;8.40;3.55;;;;;;;9.80;100.00;102104.91;5046989;28;20025;-76
2021/09/20 05:45:56;;;;;;;9.13;3.00;;;;;;;9.85;100.00;102105.38;5047286;28;20036;-77
2021/09/20 05:48:23;;;;;;;10.20;3.72;;;;;;;9.84;100.00;102104.56;5050651;28;20091;-76
2021/09/20 05:50:49;;;;;;;6.45;3.10;;;;;;;9.84;100.00;102109.81;5030723;28;20032;-76
2021/09/20 05:53:15;;;;;;;9.15;3.00;;;;;;;9.88;100.00;102113.88;5029390;28;20637;-76
2021/09/20 05:55:41;;;;;;;7.85;3.40;;;;;;;9.89;100.00;102102.47;5025505;28;20033;-76
2021/09/20 05:58:07;;;;;;;7.57;3.38;;;;;;;9.90;100.00;102105.91;5032082;28;20083;-76
2021/09/20 06:00:33;;;;;;;10.13;3.38;;;;;;;9.95;100.00;102101.19;5039748;28;20037;-76
2021/09/20 06:02:58;;;;;;;12.30;3.80;;;;;;;10.01;100.00;102113.03;5045297;28;20043;-76
2021/09/20 06:05:24;;;;;;;8.07;3.67;;;;;;;10.02;100.00;102115.53;5031955;28;20424;-76
2021/09/20 06:07:50;;;;;;;9.90;3.47;;;;;;;10.06;100.00;102111.75;5042722;28;21081;-76
2021/09/20 06:10:17;;;;;;;6.30;3.40;;;;;;;10.06;100.00;102121.41;5045160;28;20041;-76
2021/09/20 06:12:44;;;;;;;5.88;3.25;;;;;;;10.12;100.00;102126.19;5042588;28;20033;-76
2021/09/20 06:15:12;;;;;;;10.48;3.42;;;;;;;10.19;99.50;102129.22;5005622;28;20032;-76
2021/09/20 06:17:37;;;;;;;7.70;3.58;;;;;;;10.25;99.05;102127.00;5051007;28;20485;-75
2021/09/20 06:20:05;;;;;;;9.32;3.22;;;;;;;10.36;95.12;102120.16;5025223;28;20067;-76
2021/09/20 06:22:31;;;;;;;6.95;3.15;;;;;;;10.39;97.17;102117.31;5024203;28;20630;-76
2021/09/20 06:24:59;;;;;;;5.68;2.90;;;;;;;10.44;99.42;102120.44;5008921;28;20470;-74
2021/09/20 06:27:27;;;;;;;10.45;3.30;;;;;;;10.50;97.46;102114.75;5042702;28;20040;-74
2021/09/20 06:29:54;;;;;;;6.63;3.13;;;;;;;10.49;97.63;102115.69;5023936;28;20029;-75
2021/09/20 06:32:19;;;;;;;5.70;3.08;;;;;;;10.67;100.00;102131.88;5047948;28;20048;-75
2021/09/20 06:34:46;;;;;;;8.98;3.00;;;;;;;10.77;98.73;102132.03;5009740;28;20108;-75
2021/09/20 06:37:11;;;;;;;6.45;2.90;;;;;;;10.86;92.73;102134.81;5037456;28;20882;-76
2021/09/20 06:39:37;;;;;;;4.07;2.83;;;;;;;10.88;91.97;102130.28;5040276;28;20037;-75
2021/09/20 06:42:05;;;;;;;4.70;2.92;;;;;;;10.96;93.89;102127.06;5018984;28;20085;-75
2021/09/20 06:44:31;;;;;;;6.30;3.22;;;;;;;11.03;95.18;102135.34;5022178;28;20062;-76
2021/09/20 06:46:57;;;;;;;7.03;3.20;;;;;;;11.06;93.27;102130.69;5022561;28;20043;-75
2021/09/20 06:49:22;;;;;;;5.68;2.75;;;;;;;11.10;93.66;102141.81;5038573;28;20461;-76
2021/09/20 06:51:50;;;;;;;5.53;2.75;;;;;;;11.15;92.57;102134.44;5007532;28;20060;-76
2021/09/20 06:54:20;;;;;;;4.43;2.75;;;;;;;11.17;91.90;102131.66;5019337;28;20501;-76
2021/09/20 06:56:46;;;;;;;5.90;2.88;;;;;;;11.21;89.00;102133.13;5038792;28;20033;-75
2021/09/20 06:59:13;;;;;;;5.07;2.80;;;;;;;11.24;90.99;102133.69;5032959;28;20028;-77
2021/09/20 07:01:38;;;;;;;6.93;3.13;;;;;;;11.29;88.91;102136.81;5038102;28;20588;-74
2021/09/20 07:04:04;;;;;;;5.30;2.80;;;;;;;11.37;90.12;102135.41;5034179;28;20026;-75
2021/09/20 07:06:30;;;;;;;5.80;2.90;;;;;;;11.38;91.30;102143.16;5001629;28;20781;-76
2021/09/20 07:08:58;;;;;;;7.10;2.75;;;;;;;11.41;86.06;102136.84;5019963;28;20025;-75
2021/09/20 07:11:25;;;;;;;4.18;2.58;;;;;;;11.43;88.33;102141.03;5038822;28;20043;-75
2021/09/20 07:13:51;;;;;;;7.47;2.35;;;;;;;11.42;88.08;102136.72;5050641;28;20752;-75
2021/09/20 07:16:17;;;;;;;9.57;2.50;;;;;;;11.49;82.94;102152.88;5026369;28;20029;-75
2021/09/20 07:18:43;;;;;;;8.65;2.33;;;;;;;11.55;83.02;102156.81;5032950;28;20048;-74
2021/09/20 07:21:09;;;;;;;7.57;2.50;;;;;;;11.55;85.82;102149.75;5042445;28;20509;-75
2021/09/20 07:23:35;;;;;;;6.43;2.63;;;;;;;11.56;82.27;102145.34;5025358;28;20036;-74
2021/09/20 07:26:02;;;;;;;3.47;2.50;;;;;;;11.60;84.90;102147.63;5022739;28;20435;-75
2021/09/20 07:28:27;;;;;;;6.35;2.60;;;;;;;11.60;86.16;102150.25;5038553;28;20041;-75
2021/09/20 07:30:53;;;;;;;4.03;2.25;;;;;;;11.71;82.13;102148.56;5004857;28;20025;-75
2021/09/20 07:33:18;;;;;;;3.72;2.15;;;;;;;11.76;82.29;102133.28;5036876;28;20078;-75
2021/09/20 07:35:44;;;;;;;4.28;2.47;;;;;;;11.86;83.07;102142.09;5044306;28;20032;-76
2021/09/20 07:38:09;;;;;;;5.30;2.63;;;;;;;11.93;79.46;102143.31;5042625;28;20025;-75
2021/09/20 07:40:35;;;;;;;5.13;2.40;;;;;;;11.99;78.10;102149.91;5024856;28;20033;-75
2021/09/20 07:43:02;;;;;;;5.55;2.22;;;;;;;12.03;78.20;102154.78;5040445;28;20037;-75
2021/09/20 07:45:28;;;;;;;4.53;2.08;;;;;;;12.17;82.59;102158.97;5015323;28;20490;-75
2021/09/20 07:47:54;;;;;;;4.05;2.45;;;;;;;12.19;82.87;102150.94;5046614;28;20044;-75
2021/09/20 07:50:22;;;;;;;3.92;2.42;;;;;;;12.25;75.07;102159.16;5042032;28;20044;-76
2021/09/20 07:52:49;;;;;;;3.15;2.08;;;;;;;12.34;79.49;102167.28;5040085;28;20837;-76
2021/09/20 07:55:16;;;;;;;4.32;2.05;;;;;;;12.37;73.77;102159.97;5045116;28;20832;-75
2021/09/20 07:57:42;;;;;;;3.20;1.95;;;;;;;12.45;83.25;102160.22;5039453;28;20132;-76
2021/09/20 08:00:10;;;;;;;5.28;2.50;;;;;;;12.58;87.32;102167.09;5029040;28;20040;-75
2021/09/20 08:02:36;;;;;;;3.33;2.38;;;;;;;12.64;82.28;102177.16;5022294;28;20040;-76
2021/09/20 08:05:02;;;;;;;3.35;2.33;;;;;;;12.71;79.83;102180.94;5038252;28;20030;-76
2021/09/20 08:07:28;;;;;;;5.78;2.30;;;;;;;12.64;78.72;102179.78;5004972;28;20037;-75
2021/09/20 08:09:53;;;;;;;3.65;2.08;;;;;;;12.74;77.87;102180.69;5026811;28;20110;-76
2021/09/20 08:12:19;;;;;;;7.22;2.00;;;;;;;12.79;77.82;102180.28;5038523;28;20033;-76
2021/09/20 08:14:44;;;;;;;7.22;2.40;;;;;;;12.82;76.01;102174.78;5016489;28;20478;-75
2021/09/20 08:17:10;;;;;;;2.85;2.20;;;;;;;12.82;76.65;102178.25;5045952;28;20025;-77
2021/09/20 08:19:36;;;;;;;5.78;1.92;;;;;;;12.83;74.18;102176.47;5050628;28;20123;-75
2021/09/20 08:22:02;;;;;;;3.88;2.25;;;;;;;12.90;75.00;102179.41;5038459;28;20466;-75
2021/09/20 08:24:28;;;;;;;4.22;2.30;;;;;;;13.02;74.20;102188.97;5044575;28;20230;-75
2021/09/20 08:26:53;;;;;;;4.53;2.03;;;;;;;13.04;76.95;102187.03;5032040;28;20033;-75
2021/09/20 08:29:19;;;;;;;5.28;2.50;;;;;;;13.06;72.98;102190.38;5021229;28;20377;-74
2021/09/20 08:31:44;;;;;;;4.03;1.83;;;;;;;13.20;75.54;102197.97;5018007;28;20089;-75
2021/09/20 08:34:10;;;;;;;7.60;2.58;;;;;;;13.34;76.65;102198.63;5049933;28;20440;-77
2021/09/20 08:36:36;;;;;;;4.85;2.50;;;;;;;13.31;75.53;102196.25;5031452;28;20592;-74
2021/09/20 08:39:03;;;;;;;3.08;2.60;;;;;;;13.27;73.29;102195.63;5045290;28;20085;-75
2021/09/20 08:41:29;;;;;;;4.85;2.60;;;;;;;13.15;73.12;102202.78;5028483;28;20569;-75
2021/09/20 08:43:55;;;;;;;6.25;2.65;;;;;;;13.26;72.88;102204.53;5048140;28;20095;-75
2021/09/20 08:46:21;;;;;;;6.28;2.50;;;;;;;13.31;77.23;102210.25;5045240;28;20052;-74
2021/09/20 08:48:48;;;;;;;6.22;2.90;;;;;;;13.39;77.36;102210.47;5014580;28;20147;-75
2021/09/20 08:51:18;;;;;;;6.07;2.90;;;;;;;13.50;76.96;102200.81;5042779;28;20037;-73
2021/09/20 08:53:45;;;;;;;5.22;3.03;;;;;;;13.53;75.17;102209.28;5012483;28;20667;-75
2021/09/20 08:56:12;;;;;;;6.93;2.85;;;;;;;13.54;75.02;102216.25;5041143;28;20471;-74
2021/09/20 08:58:37;;;;;;;5.75;3.03;;;;;;;13.52;76.78;102207.59;5028509;28;20032;-74
2021/09/20 09:01:03;;;;;;;4.40;2.50;;;;;;;13.49;76.79;102215.78;5029780;28;20485;-75
2021/09/20 09:03:30;;;;;;;4.35;2.95;;;;;;;13.66;78.18;102211.72;5019535;28;20108;-75
2021/09/20 09:05:56;;;;;;;6.22;2.90;;;;;;;13.74;76.58;102216.34;5025247;28;20057;-74
2021/09/20 09:08:37;;;;;;;3.35;2.33;;;;;;;13.74;76.69;102217.16;5020053;28;20507;-75
2021/09/20 09:11:12;;;;;;;4.25;2.53;;;;;;;13.78;75.95;102220.38;5049429;28;20043;-74
2021/09/20 09:13:41;;;;;;;6.47;2.53;;;;;;;13.79;77.11;102229.97;5023245;28;20043;-75
2021/09/20 09:16:23;;;;;;;6.68;3.10;;;;;;;13.79;77.81;102224.69;5036646;28;20045;-73
2021/09/20 09:18:59;;;;;;;6.18;2.60;;;;;;;13.82;78.62;102222.63;5026503;28;20512;-76
2021/09/20 09:21:28;;;;;;;6.25;2.80;;;;;;;13.96;79.74;102223.25;5029528;28;20065;-76
2021/09/20 09:24:14;;;;;;;6.07;3.13;;;;;;;14.17;79.58;102229.28;5026304;28;20033;-75
2021/09/20 09:26:55;;;;;;;4.18;2.78;;;;;;;14.14;75.37;102231.34;5009057;28;20045;-74
2021/09/20 09:29:21;;;;;;;3.95;2.88;;;;;;;14.07;75.59;102227.56;5044787;28;20033;-76
2021/09/20 09:31:58;;;;;;;6.93;3.30;;;;;;;14.02;75.27;102239.38;5011247;28;20397;-73
2021/09/20 09:34:33;;;;;;;5.15;2.80;;;;;;;14.14;76.61;102231.34;5014087;28;20037;-76
2021/09/20 09:37:13;;;;;;;6.30;3.25;;;;;;;14.17;76.44;102234.56;5040136;28;20055;-74
2021/09/20 09:39:40;;;;;;;4.32;3.10;;;;;;;14.26;76.21;102237.34;5005397;28;20659;-75
2021/09/20 09:42:28;;;;;;;7.43;2.60;;;;;;;14.27;75.10;102228.47;5026278;28;20037;-77
2021/09/20 09:44:54;;;;;;;5.05;2.88;;;;;;;14.39;77.92;102235.31;5023739;28;20083;-77
2021/09/20 09:47:27;;;;;;;5.32;2.95;;;;;;;14.40;75.58;102223.78;5041324;28;20068;-75
2021/09/20 09:50:15;;;;;;;4.55;2.63;;;;;;;14.29;73.59;102239.75;5017698;28;20029;-77
2021/09/20 09:52:41;;;;;;;3.22;2.60;;;;;;;14.49;76.64;102244.09;5030437;28;20036;-72
2021/09/20 09:55:09;;;;;;;7.13;2.90;;;;;;;14.49;75.39;102238.81;5029711;28;20116;-71
2021/09/20 09:57:34;;;;;;;4.38;2.80;;;;;;;14.24;73.24;102234.03;5028998;28;20120;-75
2021/09/20 10:00:11;;;;;;;5.57;2.72;;;;;;;14.36;75.53;102231.16;5039412;28;20112;-74
2021/09/20 10:02:42;;;;;;;5.50;2.72;;;;;;;14.28;75.32;102232.78;5035130;28;20033;-75
2021/09/20 10:05:17;;;;;;;5.50;2.72;;;;;;;14.33;71.78;102230.56;5036772;28;20020;-75
2021/09/20 10:07:45;;;;;;;3.95;2.50;;;;;;;14.46;73.12;102236.44;5053747;28;20044;-75
2021/09/20 10:10:14;;;;;;;4.35;3.00;;;;;;;14.27;71.15;102236.41;5038832;28;20040;-75
2021/09/20 10:12:42;;;;;;;4.85;3.00;;;;;;;14.31;73.36;102229.88;5042411;28;20040;-74
2021/09/20 10:15:10;;;;;;;6.32;3.10;;;;;;;14.46;73.40;102230.34;5040492;28;20036;-77
2021/09/20 10:17:36;;;;;;;7.43;2.58;;;;;;;14.67;71.87;102235.53;5042946;28;20092;-76
2021/09/20 10:20:04;;;;;;;4.47;2.60;;;;;;;14.64;74.32;102228.75;5029609;28;20050;-76
2021/09/20 10:22:31;;;;;;;3.67;2.92;;;;;;;14.41;72.30;102225.47;5023393;28;20045;-77
2021/09/20 10:25:02;;;;;;;4.85;2.78;;;;;;;14.44;72.46;102229.63;5029382;28;20029;-77
2021/09/20 10:27:29;;;;;;;3.88;3.08;;;;;;;14.66;76.05;102228.59;5044144;28;20040;-75
2021/09/20 10:30:06;;;;;;;6.53;2.92;;;;;;;14.86;74.73;102226.78;5030978;28;20517;-75
2021/09/20 10:32:32;;;;;;;6.40;2.75;;;;;;;14.92;73.63;102228.91;5033793;28;20077;-76
2021/09/20 10:35:21;;;;;;;4.88;2.80;;;;;;;15.15;75.76;102227.63;5026143;28;20033;-75
2021/09/20 10:37:47;;;;;;;4.65;3.35;;;;;;;15.30;71.50;102219.28;5006376;28;20472;-74
2021/09/20 10:40:12;;;;;;;4.18;2.60;;;;;;;15.38;70.69;102222.88;5042149;28;20037;-75
2021/09/20 10:42:43;;;;;;;4.97;2.67;;;;;;;15.51;70.57;102229.69;5027567;28;20064;-75
2021/09/20 10:45:30;;;;;;;4.50;2.85;;;;;;;15.23;69.21;102220.81;5012885;28;20033;-76
2021/09/20 10:48:01;;;;;;;4.97;2.97;;;;;;;15.19;74.22;102226.38;5033824;28;20450;-75
2021/09/20 10:51:08;;;;;;;4.60;3.00;;;;;;;15.08;74.29;102223.88;5036208;28;20515;-74
2021/09/20 10:53:34;;;;;;;7.78;2.90;;;;;;;14.86;76.22;102227.66;5040359;28;20454;-77
2021/09/20 10:56:03;;;;;;;3.65;2.65;;;;;;;14.88;75.56;102233.63;5031667;28;20560;-75
2021/09/20 10:58:35;;;;;;;3.38;2.55;;;;;;;14.93;74.16;102227.91;5032806;28;20037;-74
2021/09/20 11:01:16;;;;;;;3.38;2.30;;;;;;;14.79;68.02;102229.19;5049623;28;20032;-75
2021/09/20 11:03:53;;;;;;;3.85;2.67;;;;;;;14.88;72.32;102224.84;5036304;28;20043;-74
2021/09/20 11:06:23;;;;;;;5.45;2.63;;;;;;;15.05;73.52;102221.53;5033704;28;20025;-75
2021/09/20 11:08:58;;;;;;;3.58;2.83;;;;;;;15.23;70.59;102218.16;5015669;28;20111;-76
2021/09/20 11:14:16;;;;;;;8.35;2.65;;;;;;;15.39;72.86;102215.78;5047936;28;20025;-74
2021/09/20 11:17:15;;;;;;;5.22;2.70;;;;;;;15.45;73.18;102214.38;5061834;28;20481;-77
2021/09/20 11:19:45;;;;;;;6.05;2.60;;;;;;;15.46;69.38;102216.88;5023922;28;20040;-77
2021/09/20 11:22:14;;;;;;;4.72;2.22;;;;;;;15.24;67.46;102210.09;5024585;28;20040;-75
2021/09/20 11:24:44;;;;;;;6.60;2.50;;;;;;;15.24;61.88;102215.41;5047848;28;20033;-76
2021/09/20 11:27:16;;;;;;;2.55;2.22;;;;;;;15.08;69.17;102226.53;5050703;28;20058;-76